sensor_id;sensor_type;location;lat;lon;timestamp;P1;durP1;ratioP1;P2;durP2;ratioP2
5085;SDS011;4715;51.660;7.082;2022-12-20T00:01:58;3.43;;;2.63;;
5085;SDS011;4715;51.660;7.082;2022-12-20T00:04:20;2.60;;;2.50;;
5085;SDS011;4715;51.660;7.082;2022-12-20T00:06:42;2.47;;;2.23;;
5085;SDS011;4715;51.660;7.082;2022-12-20T00:09:04;2.17;;;2.07;;
5085;SDS011;4715;51.660;7.082;2022-12-20T00:11:29;2.37;;;2.20;;
5085;SDS011;4715;51.660;7.082;2022-12-20T00:13:51;2.53;;;2.33;;
5085;SDS011;4715;51.660;7.082;2022-12-20T00:16:13;2.00;;;1.90;;
5085;SDS011;4715;51.660;7.082;2022-12-20T00:18:37;2.43;;;2.20;;
5085;SDS011;4715;51.660;7.082;2022-12-20T00:20:59;2.63;;;2.43;;
5085;SDS011;4715;51.660;7.082;2022-12-20T00:23:22;2.30;;;2.10;;
5085;SDS011;4715;51.660;7.082;2022-12-20T00:25:44;3.17;;;2.07;;
5085;SDS011;4715;51.660;7.082;2022-12-20T00:28:07;2.10;;;2.00;;
5085;SDS011;4715;51.660;7.082;2022-12-20T00:30:29;2.93;;;2.73;;
5085;SDS011;4715;51.660;7.082;2022-12-20T00:32:51;2.70;;;2.50;;
5085;SDS011;4715;51.660;7.082;2022-12-20T00:35:13;1.90;;;1.80;;
5085;SDS011;4715;51.660;7.082;2022-12-20T00:37:35;2.13;;;2.03;;
5085;SDS011;4715;51.660;7.082;2022-12-20T00:39:57;1.70;;;1.60;;
5085;SDS011;4715;51.660;7.082;2022-12-20T00:42:19;2.67;;;2.17;;
5085;SDS011;4715;51.660;7.082;2022-12-20T00:44:42;2.23;;;2.10;;
5085;SDS011;4715;51.660;7.082;2022-12-20T00:47:03;2.77;;;2.57;;
5085;SDS011;4715;51.660;7.082;2022-12-20T00:49:25;1.97;;;1.87;;
5085;SDS011;4715;51.660;7.082;2022-12-20T00:51:47;2.37;;;2.17;;
5085;SDS011;4715;51.660;7.082;2022-12-20T00:54:10;2.10;;;2.00;;
5085;SDS011;4715;51.660;7.082;2022-12-20T00:56:31;3.07;;;2.13;;
5085;SDS011;4715;51.660;7.082;2022-12-20T00:58:53;2.77;;;2.57;;
5085;SDS011;4715;51.660;7.082;2022-12-20T01:01:20;2.17;;;2.07;;
5085;SDS011;4715;51.660;7.082;2022-12-20T01:03:44;2.30;;;2.10;;
5085;SDS011;4715;51.660;7.082;2022-12-20T01:06:06;2.30;;;2.13;;
5085;SDS011;4715;51.660;7.082;2022-12-20T01:08:30;5.10;;;2.40;;
5085;SDS011;4715;51.660;7.082;2022-12-20T01:10:58;1.83;;;1.73;;
5085;SDS011;4715;51.660;7.082;2022-12-20T01:13:20;5.10;;;2.00;;
5085;SDS011;4715;51.660;7.082;2022-12-20T01:15:44;2.33;;;2.10;;
5085;SDS011;4715;51.660;7.082;2022-12-20T01:18:07;3.40;;;1.80;;
5085;SDS011;4715;51.660;7.082;2022-12-20T01:20:29;2.13;;;2.03;;
5085;SDS011;4715;51.660;7.082;2022-12-20T01:22:50;1.80;;;1.70;;
5085;SDS011;4715;51.660;7.082;2022-12-20T01:25:12;1.90;;;1.80;;
5085;SDS011;4715;51.660;7.082;2022-12-20T01:27:34;2.50;;;2.30;;
5085;SDS011;4715;51.660;7.082;2022-12-20T01:29:56;1.53;;;1.43;;
5085;SDS011;4715;51.660;7.082;2022-12-20T01:32:18;5.77;;;2.50;;
5085;SDS011;4715;51.660;7.082;2022-12-20T01:34:41;1.83;;;1.73;;
5085;SDS011;4715;51.660;7.082;2022-12-20T01:37:03;2.07;;;1.97;;
5085;SDS011;4715;51.660;7.082;2022-12-20T01:39:26;1.80;;;1.70;;
5085;SDS011;4715;51.660;7.082;2022-12-20T01:41:48;2.73;;;2.20;;
5085;SDS011;4715;51.660;7.082;2022-12-20T01:47:09;2.00;;;1.90;;
5085;SDS011;4715;51.660;7.082;2022-12-20T01:49:34;1.67;;;1.57;;
5085;SDS011;4715;51.660;7.082;2022-12-20T01:52:01;2.57;;;2.37;;
5085;SDS011;4715;51.660;7.082;2022-12-20T01:54:28;2.10;;;1.90;;
5085;SDS011;4715;51.660;7.082;2022-12-20T01:56:54;1.80;;;1.70;;
5085;SDS011;4715;51.660;7.082;2022-12-20T01:59:21;2.90;;;2.00;;
5085;SDS011;4715;51.660;7.082;2022-12-20T02:01:43;1.63;;;1.47;;
5085;SDS011;4715;51.660;7.082;2022-12-20T02:04:06;2.20;;;2.00;;
5085;SDS011;4715;51.660;7.082;2022-12-20T02:06:28;2.63;;;1.70;;
5085;SDS011;4715;51.660;7.082;2022-12-20T02:08:51;2.60;;;1.80;;
5085;SDS011;4715;51.660;7.082;2022-12-20T02:11:20;2.80;;;2.00;;
5085;SDS011;4715;51.660;7.082;2022-12-20T02:13:56;3.37;;;2.83;;
5085;SDS011;4715;51.660;7.082;2022-12-20T02:16:28;2.10;;;1.90;;
5085;SDS011;4715;51.660;7.082;2022-12-20T02:18:56;1.90;;;1.70;;
5085;SDS011;4715;51.660;7.082;2022-12-20T02:21:23;2.07;;;1.87;;
5085;SDS011;4715;51.660;7.082;2022-12-20T02:24:15;1.87;;;1.70;;
5085;SDS011;4715;51.660;7.082;2022-12-20T02:27:01;1.83;;;1.73;;
5085;SDS011;4715;51.660;7.082;2022-12-20T02:29:59;2.00;;;1.90;;
5085;SDS011;4715;51.660;7.082;2022-12-20T02:32:24;2.27;;;1.90;;
5085;SDS011;4715;51.660;7.082;2022-12-20T02:34:51;2.23;;;2.13;;
5085;SDS011;4715;51.660;7.082;2022-12-20T02:37:13;1.70;;;1.50;;
5085;SDS011;4715;51.660;7.082;2022-12-20T02:39:35;2.47;;;1.70;;
5085;SDS011;4715;51.660;7.082;2022-12-20T02:42:00;3.03;;;2.20;;
5085;SDS011;4715;51.660;7.082;2022-12-20T02:44:27;2.27;;;1.87;;
5085;SDS011;4715;51.660;7.082;2022-12-20T02:47:09;2.27;;;1.90;;
5085;SDS011;4715;51.660;7.082;2022-12-20T02:49:36;2.07;;;1.97;;
5085;SDS011;4715;51.660;7.082;2022-12-20T02:52:01;2.47;;;1.77;;
5085;SDS011;4715;51.660;7.082;2022-12-20T02:54:24;2.13;;;2.03;;
5085;SDS011;4715;51.660;7.082;2022-12-20T02:56:49;1.60;;;1.50;;
5085;SDS011;4715;51.660;7.082;2022-12-20T02:59:16;2.30;;;2.10;;
5085;SDS011;4715;51.660;7.082;2022-12-20T03:01:43;3.10;;;1.70;;
5085;SDS011;4715;51.660;7.082;2022-12-20T03:04:09;2.20;;;2.00;;
5085;SDS011;4715;51.660;7.082;2022-12-20T03:06:31;2.40;;;2.20;;
5085;SDS011;4715;51.660;7.082;2022-12-20T03:08:53;5.93;;;2.13;;
5085;SDS011;4715;51.660;7.082;2022-12-20T03:11:15;1.93;;;1.83;;
5085;SDS011;4715;51.660;7.082;2022-12-20T03:13:37;3.83;;;2.20;;
5085;SDS011;4715;51.660;7.082;2022-12-20T03:15:59;2.03;;;1.93;;
5085;SDS011;4715;51.660;7.082;2022-12-20T03:18:21;2.10;;;2.00;;
5085;SDS011;4715;51.660;7.082;2022-12-20T03:20:44;5.03;;;3.13;;
5085;SDS011;4715;51.660;7.082;2022-12-20T03:23:06;7.03;;;2.30;;
5085;SDS011;4715;51.660;7.082;2022-12-20T03:25:27;2.17;;;2.07;;
5085;SDS011;4715;51.660;7.082;2022-12-20T03:27:49;2.93;;;2.17;;
5085;SDS011;4715;51.660;7.082;2022-12-20T03:30:12;2.23;;;2.13;;
5085;SDS011;4715;51.660;7.082;2022-12-20T03:32:34;3.57;;;2.60;;
5085;SDS011;4715;51.660;7.082;2022-12-20T03:34:56;2.40;;;2.30;;
5085;SDS011;4715;51.660;7.082;2022-12-20T03:37:20;2.80;;;2.50;;
5085;SDS011;4715;51.660;7.082;2022-12-20T03:39:42;2.80;;;2.60;;
5085;SDS011;4715;51.660;7.082;2022-12-20T03:42:04;1.80;;;1.70;;
5085;SDS011;4715;51.660;7.082;2022-12-20T03:44:26;2.50;;;2.30;;
5085;SDS011;4715;51.660;7.082;2022-12-20T03:46:47;3.43;;;2.63;;
5085;SDS011;4715;51.660;7.082;2022-12-20T03:49:09;2.77;;;2.53;;
5085;SDS011;4715;51.660;7.082;2022-12-20T03:51:31;2.43;;;2.10;;
5085;SDS011;4715;51.660;7.082;2022-12-20T03:53:54;2.77;;;2.50;;
5085;SDS011;4715;51.660;7.082;2022-12-20T03:56:16;3.40;;;3.10;;
5085;SDS011;4715;51.660;7.082;2022-12-20T03:58:38;3.67;;;2.77;;
5085;SDS011;4715;51.660;7.082;2022-12-20T04:01:00;4.13;;;2.97;;
5085;SDS011;4715;51.660;7.082;2022-12-20T04:03:21;4.00;;;2.33;;
5085;SDS011;4715;51.660;7.082;2022-12-20T04:05:43;2.60;;;2.40;;
5085;SDS011;4715;51.660;7.082;2022-12-20T04:08:05;4.83;;;2.93;;
5085;SDS011;4715;51.660;7.082;2022-12-20T04:10:28;2.90;;;2.73;;
5085;SDS011;4715;51.660;7.082;2022-12-20T04:12:50;2.80;;;2.60;;
5085;SDS011;4715;51.660;7.082;2022-12-20T04:15:12;2.60;;;2.40;;
5085;SDS011;4715;51.660;7.082;2022-12-20T04:17:34;3.23;;;2.70;;
5085;SDS011;4715;51.660;7.082;2022-12-20T04:19:56;3.73;;;2.20;;
5085;SDS011;4715;51.660;7.082;2022-12-20T04:22:18;6.10;;;3.50;;
5085;SDS011;4715;51.660;7.082;2022-12-20T04:24:39;3.87;;;2.73;;
5085;SDS011;4715;51.660;7.082;2022-12-20T04:27:02;3.47;;;2.33;;
5085;SDS011;4715;51.660;7.082;2022-12-20T04:29:24;3.10;;;2.60;;
5085;SDS011;4715;51.660;7.082;2022-12-20T04:31:46;2.47;;;2.27;;
5085;SDS011;4715;51.660;7.082;2022-12-20T04:34:08;3.03;;;2.83;;
5085;SDS011;4715;51.660;7.082;2022-12-20T04:36:30;2.67;;;2.50;;
5085;SDS011;4715;51.660;7.082;2022-12-20T04:38:52;3.60;;;2.97;;
5085;SDS011;4715;51.660;7.082;2022-12-20T04:41:14;2.70;;;2.50;;
5085;SDS011;4715;51.660;7.082;2022-12-20T04:43:43;3.07;;;2.83;;
5085;SDS011;4715;51.660;7.082;2022-12-20T04:46:05;4.93;;;3.60;;
5085;SDS011;4715;51.660;7.082;2022-12-20T04:48:27;3.90;;;3.03;;
5085;SDS011;4715;51.660;7.082;2022-12-20T04:50:49;3.00;;;2.60;;
5085;SDS011;4715;51.660;7.082;2022-12-20T04:53:12;3.17;;;2.97;;
5085;SDS011;4715;51.660;7.082;2022-12-20T04:55:51;4.70;;;3.10;;
5085;SDS011;4715;51.660;7.082;2022-12-20T04:58:13;2.83;;;2.73;;
5085;SDS011;4715;51.660;7.082;2022-12-20T05:00:37;2.90;;;2.70;;
5085;SDS011;4715;51.660;7.082;2022-12-20T05:02:58;2.70;;;2.60;;
5085;SDS011;4715;51.660;7.082;2022-12-20T05:05:20;5.67;;;3.50;;
5085;SDS011;4715;51.660;7.082;2022-12-20T05:07:42;3.13;;;2.83;;
5085;SDS011;4715;51.660;7.082;2022-12-20T05:10:04;3.50;;;3.30;;
5085;SDS011;4715;51.660;7.082;2022-12-20T05:12:26;3.90;;;3.00;;
5085;SDS011;4715;51.660;7.082;2022-12-20T05:14:48;2.87;;;2.67;;
5085;SDS011;4715;51.660;7.082;2022-12-20T05:17:12;2.80;;;2.60;;
5085;SDS011;4715;51.660;7.082;2022-12-20T05:19:34;4.90;;;2.80;;
5085;SDS011;4715;51.660;7.082;2022-12-20T05:21:55;3.43;;;2.73;;
5085;SDS011;4715;51.660;7.082;2022-12-20T05:24:35;3.10;;;2.80;;
5085;SDS011;4715;51.660;7.082;2022-12-20T05:27:14;2.80;;;2.60;;
5085;SDS011;4715;51.660;7.082;2022-12-20T05:29:36;3.43;;;3.13;;
5085;SDS011;4715;51.660;7.082;2022-12-20T05:31:57;3.40;;;2.50;;
5085;SDS011;4715;51.660;7.082;2022-12-20T05:34:20;2.90;;;2.70;;
5085;SDS011;4715;51.660;7.082;2022-12-20T05:36:42;3.17;;;2.97;;
5085;SDS011;4715;51.660;7.082;2022-12-20T05:39:05;3.47;;;3.17;;
5085;SDS011;4715;51.660;7.082;2022-12-20T05:41:26;2.53;;;2.33;;
5085;SDS011;4715;51.660;7.082;2022-12-20T05:43:48;2.60;;;2.40;;
5085;SDS011;4715;51.660;7.082;2022-12-20T05:46:10;6.40;;;2.57;;
5085;SDS011;4715;51.660;7.082;2022-12-20T05:48:32;2.53;;;2.33;;
5085;SDS011;4715;51.660;7.082;2022-12-20T05:50:55;2.97;;;2.77;;
5085;SDS011;4715;51.660;7.082;2022-12-20T05:53:17;3.57;;;2.83;;
5085;SDS011;4715;51.660;7.082;2022-12-20T05:55:41;3.97;;;2.97;;
5085;SDS011;4715;51.660;7.082;2022-12-20T05:58:04;3.77;;;2.57;;
5085;SDS011;4715;51.660;7.082;2022-12-20T06:00:27;2.50;;;2.30;;
5085;SDS011;4715;51.660;7.082;2022-12-20T06:02:49;3.00;;;2.67;;
5085;SDS011;4715;51.660;7.082;2022-12-20T06:05:11;2.10;;;2.00;;
5085;SDS011;4715;51.660;7.082;2022-12-20T06:07:34;3.83;;;2.00;;
5085;SDS011;4715;51.660;7.082;2022-12-20T06:09:56;2.07;;;1.97;;
5085;SDS011;4715;51.660;7.082;2022-12-20T06:12:18;2.50;;;2.30;;
5085;SDS011;4715;51.660;7.082;2022-12-20T06:14:42;2.43;;;1.97;;
5085;SDS011;4715;51.660;7.082;2022-12-20T06:17:04;3.67;;;2.33;;
5085;SDS011;4715;51.660;7.082;2022-12-20T06:19:25;2.73;;;2.53;;
5085;SDS011;4715;51.660;7.082;2022-12-20T06:21:47;2.30;;;2.20;;
5085;SDS011;4715;51.660;7.082;2022-12-20T06:24:11;3.10;;;2.90;;
5085;SDS011;4715;51.660;7.082;2022-12-20T06:26:32;2.70;;;2.50;;
5085;SDS011;4715;51.660;7.082;2022-12-20T06:28:55;2.77;;;2.63;;
5085;SDS011;4715;51.660;7.082;2022-12-20T06:31:21;2.73;;;2.53;;
5085;SDS011;4715;51.660;7.082;2022-12-20T06:33:44;4.13;;;2.77;;
5085;SDS011;4715;51.660;7.082;2022-12-20T06:36:06;3.60;;;3.30;;
5085;SDS011;4715;51.660;7.082;2022-12-20T06:38:28;4.43;;;4.00;;
5085;SDS011;4715;51.660;7.082;2022-12-20T06:40:52;2.77;;;2.57;;
5085;SDS011;4715;51.660;7.082;2022-12-20T06:43:13;3.43;;;3.10;;
5085;SDS011;4715;51.660;7.082;2022-12-20T06:45:36;5.23;;;2.80;;
5085;SDS011;4715;51.660;7.082;2022-12-20T06:47:58;2.50;;;2.30;;
5085;SDS011;4715;51.660;7.082;2022-12-20T06:50:20;2.93;;;2.63;;
5085;SDS011;4715;51.660;7.082;2022-12-20T06:52:42;2.97;;;2.77;;
5085;SDS011;4715;51.660;7.082;2022-12-20T06:55:07;3.00;;;2.80;;
5085;SDS011;4715;51.660;7.082;2022-12-20T06:57:30;3.03;;;2.83;;
5085;SDS011;4715;51.660;7.082;2022-12-20T06:59:52;4.27;;;3.20;;
5085;SDS011;4715;51.660;7.082;2022-12-20T07:02:14;3.17;;;2.93;;
5085;SDS011;4715;51.660;7.082;2022-12-20T07:04:37;2.90;;;2.70;;
5085;SDS011;4715;51.660;7.082;2022-12-20T07:06:59;3.17;;;2.80;;
5085;SDS011;4715;51.660;7.082;2022-12-20T07:09:21;2.63;;;2.43;;
5085;SDS011;4715;51.660;7.082;2022-12-20T07:11:43;2.40;;;2.30;;
5085;SDS011;4715;51.660;7.082;2022-12-20T07:14:08;4.27;;;2.83;;
5085;SDS011;4715;51.660;7.082;2022-12-20T07:16:30;2.80;;;2.60;;
5085;SDS011;4715;51.660;7.082;2022-12-20T07:18:52;2.50;;;2.30;;
5085;SDS011;4715;51.660;7.082;2022-12-20T07:21:17;2.10;;;2.00;;
5085;SDS011;4715;51.660;7.082;2022-12-20T07:23:40;6.90;;;2.50;;
5085;SDS011;4715;51.660;7.082;2022-12-20T07:26:03;3.00;;;2.80;;
5085;SDS011;4715;51.660;7.082;2022-12-20T07:28:25;2.63;;;2.43;;
5085;SDS011;4715;51.660;7.082;2022-12-20T07:30:50;5.37;;;2.37;;
5085;SDS011;4715;51.660;7.082;2022-12-20T07:33:12;3.20;;;2.57;;
5085;SDS011;4715;51.660;7.082;2022-12-20T07:35:35;4.37;;;2.60;;
5085;SDS011;4715;51.660;7.082;2022-12-20T07:38:00;2.53;;;2.33;;
5085;SDS011;4715;51.660;7.082;2022-12-20T07:40:22;2.43;;;2.23;;
5085;SDS011;4715;51.660;7.082;2022-12-20T07:42:45;2.50;;;2.20;;
5085;SDS011;4715;51.660;7.082;2022-12-20T07:45:07;2.67;;;2.47;;
5085;SDS011;4715;51.660;7.082;2022-12-20T07:47:35;2.40;;;2.30;;
5085;SDS011;4715;51.660;7.082;2022-12-20T07:49:58;7.80;;;2.47;;
5085;SDS011;4715;51.660;7.082;2022-12-20T07:52:26;4.40;;;2.70;;
5085;SDS011;4715;51.660;7.082;2022-12-20T07:54:50;2.80;;;2.50;;
5085;SDS011;4715;51.660;7.082;2022-12-20T07:57:16;3.10;;;2.90;;
5085;SDS011;4715;51.660;7.082;2022-12-20T07:59:43;2.50;;;2.20;;
5085;SDS011;4715;51.660;7.082;2022-12-20T08:02:08;3.80;;;2.00;;
5085;SDS011;4715;51.660;7.082;2022-12-20T08:04:43;2.57;;;2.40;;
5085;SDS011;4715;51.660;7.082;2022-12-20T08:07:05;3.00;;;2.80;;
5085;SDS011;4715;51.660;7.082;2022-12-20T08:09:33;3.17;;;2.23;;
5085;SDS011;4715;51.660;7.082;2022-12-20T08:11:57;2.47;;;2.37;;
5085;SDS011;4715;51.660;7.082;2022-12-20T08:14:20;2.50;;;2.27;;
5085;SDS011;4715;51.660;7.082;2022-12-20T08:16:42;2.40;;;2.30;;
5085;SDS011;4715;51.660;7.082;2022-12-20T08:19:05;2.20;;;2.10;;
5085;SDS011;4715;51.660;7.082;2022-12-20T08:21:31;2.53;;;2.33;;
5085;SDS011;4715;51.660;7.082;2022-12-20T08:23:53;2.23;;;2.13;;
5085;SDS011;4715;51.660;7.082;2022-12-20T08:26:21;2.17;;;2.07;;
5085;SDS011;4715;51.660;7.082;2022-12-20T08:28:44;2.20;;;2.10;;
5085;SDS011;4715;51.660;7.082;2022-12-20T08:31:11;2.43;;;2.23;;
5085;SDS011;4715;51.660;7.082;2022-12-20T08:33:34;2.60;;;2.40;;
5085;SDS011;4715;51.660;7.082;2022-12-20T08:35:59;3.67;;;2.47;;
5085;SDS011;4715;51.660;7.082;2022-12-20T08:38:25;2.70;;;2.13;;
5085;SDS011;4715;51.660;7.082;2022-12-20T08:40:48;2.10;;;2.00;;
5085;SDS011;4715;51.660;7.082;2022-12-20T08:43:10;4.00;;;2.57;;
5085;SDS011;4715;51.660;7.082;2022-12-20T08:45:33;4.93;;;1.87;;
5085;SDS011;4715;51.660;7.082;2022-12-20T08:47:58;2.77;;;2.33;;
5085;SDS011;4715;51.660;7.082;2022-12-20T08:50:20;1.87;;;1.77;;
5085;SDS011;4715;51.660;7.082;2022-12-20T08:52:43;1.90;;;1.80;;
5085;SDS011;4715;51.660;7.082;2022-12-20T08:55:07;2.10;;;2.00;;
5085;SDS011;4715;51.660;7.082;2022-12-20T08:57:29;3.20;;;2.33;;
5085;SDS011;4715;51.660;7.082;2022-12-20T08:59:51;2.33;;;2.13;;
5085;SDS011;4715;51.660;7.082;2022-12-20T09:02:14;2.27;;;1.90;;
5085;SDS011;4715;51.660;7.082;2022-12-20T09:04:42;2.50;;;2.10;;
5085;SDS011;4715;51.660;7.082;2022-12-20T09:07:04;1.60;;;1.50;;
5085;SDS011;4715;51.660;7.082;2022-12-20T09:09:26;1.90;;;1.80;;
5085;SDS011;4715;51.660;7.082;2022-12-20T09:11:50;2.37;;;2.27;;
5085;SDS011;4715;51.660;7.082;2022-12-20T09:14:11;2.50;;;2.30;;
5085;SDS011;4715;51.660;7.082;2022-12-20T09:16:33;2.30;;;2.13;;
5085;SDS011;4715;51.660;7.082;2022-12-20T09:18:56;4.27;;;2.27;;
5085;SDS011;4715;51.660;7.082;2022-12-20T09:21:19;2.33;;;2.20;;
5085;SDS011;4715;51.660;7.082;2022-12-20T09:23:41;2.47;;;2.37;;
5085;SDS011;4715;51.660;7.082;2022-12-20T09:26:04;5.27;;;2.40;;
5085;SDS011;4715;51.660;7.082;2022-12-20T09:28:29;2.90;;;2.37;;
5085;SDS011;4715;51.660;7.082;2022-12-20T09:30:51;3.90;;;2.70;;
5085;SDS011;4715;51.660;7.082;2022-12-20T09:33:18;2.07;;;1.97;;
5085;SDS011;4715;51.660;7.082;2022-12-20T09:35:43;3.13;;;2.20;;
5085;SDS011;4715;51.660;7.082;2022-12-20T09:38:05;2.17;;;2.07;;
5085;SDS011;4715;51.660;7.082;2022-12-20T09:40:28;3.70;;;2.07;;
5085;SDS011;4715;51.660;7.082;2022-12-20T09:42:52;3.90;;;2.60;;
5085;SDS011;4715;51.660;7.082;2022-12-20T09:45:17;2.90;;;2.10;;
5085;SDS011;4715;51.660;7.082;2022-12-20T09:47:43;5.80;;;2.03;;
5085;SDS011;4715;51.660;7.082;2022-12-20T09:50:05;2.03;;;1.93;;
5085;SDS011;4715;51.660;7.082;2022-12-20T09:52:29;2.00;;;1.90;;
5085;SDS011;4715;51.660;7.082;2022-12-20T09:55:06;2.40;;;2.20;;
5085;SDS011;4715;51.660;7.082;2022-12-20T09:57:44;2.10;;;1.90;;
5085;SDS011;4715;51.660;7.082;2022-12-20T10:00:13;2.80;;;2.27;;
5085;SDS011;4715;51.660;7.082;2022-12-20T10:02:38;2.30;;;1.97;;
5085;SDS011;4715;51.660;7.082;2022-12-20T10:05:00;2.20;;;1.77;;
5085;SDS011;4715;51.660;7.082;2022-12-20T10:07:26;1.90;;;1.80;;
5085;SDS011;4715;51.660;7.082;2022-12-20T10:09:59;2.27;;;1.87;;
5085;SDS011;4715;51.660;7.082;2022-12-20T10:12:37;2.13;;;2.03;;
5085;SDS011;4715;51.660;7.082;2022-12-20T10:15:17;2.53;;;2.10;;
5085;SDS011;4715;51.660;7.082;2022-12-20T10:17:44;2.33;;;1.90;;
5085;SDS011;4715;51.660;7.082;2022-12-20T10:23:02;2.07;;;1.87;;
5085;SDS011;4715;51.660;7.082;2022-12-20T10:25:32;1.83;;;1.73;;
5085;SDS011;4715;51.660;7.082;2022-12-20T10:27:55;2.30;;;2.10;;
5085;SDS011;4715;51.660;7.082;2022-12-20T10:30:20;3.80;;;2.20;;
5085;SDS011;4715;51.660;7.082;2022-12-20T10:32:44;3.60;;;2.40;;
5085;SDS011;4715;51.660;7.082;2022-12-20T10:35:15;1.93;;;1.83;;
5085;SDS011;4715;51.660;7.082;2022-12-20T10:37:55;3.47;;;2.40;;
5085;SDS011;4715;51.660;7.082;2022-12-20T10:40:24;2.10;;;1.90;;
5085;SDS011;4715;51.660;7.082;2022-12-20T10:42:47;1.83;;;1.73;;
5085;SDS011;4715;51.660;7.082;2022-12-20T10:45:20;3.10;;;2.30;;
5085;SDS011;4715;51.660;7.082;2022-12-20T10:47:56;1.80;;;1.70;;
5085;SDS011;4715;51.660;7.082;2022-12-20T10:50:21;7.80;;;2.40;;
5085;SDS011;4715;51.660;7.082;2022-12-20T10:52:45;2.73;;;2.40;;
5085;SDS011;4715;51.660;7.082;2022-12-20T10:55:31;2.47;;;2.27;;
5085;SDS011;4715;51.660;7.082;2022-12-20T10:57:55;2.10;;;2.00;;
5085;SDS011;4715;51.660;7.082;2022-12-20T11:00:26;2.70;;;2.50;;
5085;SDS011;4715;51.660;7.082;2022-12-20T11:03:00;2.60;;;2.27;;
5085;SDS011;4715;51.660;7.082;2022-12-20T11:05:30;3.17;;;2.83;;
5085;SDS011;4715;51.660;7.082;2022-12-20T11:07:54;2.37;;;2.17;;
5085;SDS011;4715;51.660;7.082;2022-12-20T11:10:20;3.97;;;2.17;;
5085;SDS011;4715;51.660;7.082;2022-12-20T11:12:51;2.93;;;2.70;;
5085;SDS011;4715;51.660;7.082;2022-12-20T11:15:18;2.43;;;2.23;;
5085;SDS011;4715;51.660;7.082;2022-12-20T11:17:43;2.63;;;1.97;;
5085;SDS011;4715;51.660;7.082;2022-12-20T11:20:20;2.93;;;2.40;;
5085;SDS011;4715;51.660;7.082;2022-12-20T11:22:49;2.70;;;2.50;;
5085;SDS011;4715;51.660;7.082;2022-12-20T11:25:29;2.70;;;2.00;;
5085;SDS011;4715;51.660;7.082;2022-12-20T11:28:03;5.13;;;2.70;;
5085;SDS011;4715;51.660;7.082;2022-12-20T11:30:39;2.83;;;2.30;;
5085;SDS011;4715;51.660;7.082;2022-12-20T11:36:17;2.87;;;2.53;;
5085;SDS011;4715;51.660;7.082;2022-12-20T11:38:47;2.70;;;2.50;;
5085;SDS011;4715;51.660;7.082;2022-12-20T11:41:17;2.70;;;2.50;;
5085;SDS011;4715;51.660;7.082;2022-12-20T11:43:49;3.27;;;2.40;;
5085;SDS011;4715;51.660;7.082;2022-12-20T11:46:25;2.13;;;2.03;;
5085;SDS011;4715;51.660;7.082;2022-12-20T11:49:02;2.50;;;2.30;;
5085;SDS011;4715;51.660;7.082;2022-12-20T11:51:51;1.90;;;1.80;;
5085;SDS011;4715;51.660;7.082;2022-12-20T11:54:25;3.20;;;1.93;;
5085;SDS011;4715;51.660;7.082;2022-12-20T11:56:51;1.90;;;1.80;;
5085;SDS011;4715;51.660;7.082;2022-12-20T11:59:19;2.93;;;1.97;;
5085;SDS011;4715;51.660;7.082;2022-12-20T12:01:50;2.53;;;2.10;;
5085;SDS011;4715;51.660;7.082;2022-12-20T12:04:19;3.10;;;2.47;;
5085;SDS011;4715;51.660;7.082;2022-12-20T12:06:43;2.27;;;2.17;;
5085;SDS011;4715;51.660;7.082;2022-12-20T12:09:12;3.20;;;2.40;;
5085;SDS011;4715;51.660;7.082;2022-12-20T12:11:42;2.87;;;2.60;;
5085;SDS011;4715;51.660;7.082;2022-12-20T12:14:08;4.57;;;2.47;;
5085;SDS011;4715;51.660;7.082;2022-12-20T12:16:38;2.67;;;2.47;;
5085;SDS011;4715;51.660;7.082;2022-12-20T12:19:07;2.97;;;2.60;;
5085;SDS011;4715;51.660;7.082;2022-12-20T12:21:32;2.67;;;2.30;;
5085;SDS011;4715;51.660;7.082;2022-12-20T12:24:00;3.33;;;2.50;;
5085;SDS011;4715;51.660;7.082;2022-12-20T12:26:26;2.63;;;2.40;;
5085;SDS011;4715;51.660;7.082;2022-12-20T12:28:52;2.83;;;2.30;;
5085;SDS011;4715;51.660;7.082;2022-12-20T12:31:16;2.27;;;2.03;;
5085;SDS011;4715;51.660;7.082;2022-12-20T12:33:42;3.10;;;2.60;;
5085;SDS011;4715;51.660;7.082;2022-12-20T12:36:15;4.88;;;2.60;;
5085;SDS011;4715;51.660;7.082;2022-12-20T12:39:05;3.03;;;2.80;;
5085;SDS011;4715;51.660;7.082;2022-12-20T12:44:35;2.80;;;2.60;;
5085;SDS011;4715;51.660;7.082;2022-12-20T12:47:10;2.73;;;2.50;;
5085;SDS011;4715;51.660;7.082;2022-12-20T12:49:34;2.10;;;1.80;;
5085;SDS011;4715;51.660;7.082;2022-12-20T12:51:57;4.70;;;2.43;;
5085;SDS011;4715;51.660;7.082;2022-12-20T12:54:23;2.37;;;2.17;;
5085;SDS011;4715;51.660;7.082;2022-12-20T12:56:48;3.20;;;2.53;;
5085;SDS011;4715;51.660;7.082;2022-12-20T13:07:55;2.60;;;2.37;;
5085;SDS011;4715;51.660;7.082;2022-12-20T13:13:21;2.90;;;2.17;;
5085;SDS011;4715;51.660;7.082;2022-12-20T13:15:51;3.03;;;2.77;;
5085;SDS011;4715;51.660;7.082;2022-12-20T13:18:28;2.30;;;2.10;;
5085;SDS011;4715;51.660;7.082;2022-12-20T13:24:01;5.47;;;2.83;;
5085;SDS011;4715;51.660;7.082;2022-12-20T13:26:59;3.40;;;2.43;;
5085;SDS011;4715;51.660;7.082;2022-12-20T13:29:25;7.90;;;3.20;;
5085;SDS011;4715;51.660;7.082;2022-12-20T13:31:53;4.63;;;2.30;;
5085;SDS011;4715;51.660;7.082;2022-12-20T13:37:27;3.03;;;2.73;;
5085;SDS011;4715;51.660;7.082;2022-12-20T13:40:13;2.87;;;2.40;;
5085;SDS011;4715;51.660;7.082;2022-12-20T13:42:41;2.83;;;2.53;;
5085;SDS011;4715;51.660;7.082;2022-12-20T13:45:05;3.97;;;2.63;;
5085;SDS011;4715;51.660;7.082;2022-12-20T13:47:33;3.37;;;3.03;;
5085;SDS011;4715;51.660;7.082;2022-12-20T13:50:00;3.23;;;2.70;;
5085;SDS011;4715;51.660;7.082;2022-12-20T13:52:41;3.37;;;3.07;;
5085;SDS011;4715;51.660;7.082;2022-12-20T13:55:06;3.10;;;2.60;;
5085;SDS011;4715;51.660;7.082;2022-12-20T13:57:39;3.20;;;3.00;;
5085;SDS011;4715;51.660;7.082;2022-12-20T14:00:03;7.30;;;3.47;;
5085;SDS011;4715;51.660;7.082;2022-12-20T14:02:35;5.80;;;3.20;;
5085;SDS011;4715;51.660;7.082;2022-12-20T14:05:02;5.80;;;3.13;;
5085;SDS011;4715;51.660;7.082;2022-12-20T14:07:28;6.17;;;3.97;;
5085;SDS011;4715;51.660;7.082;2022-12-20T14:09:54;5.53;;;3.33;;
5085;SDS011;4715;51.660;7.082;2022-12-20T14:12:20;6.93;;;3.37;;
5085;SDS011;4715;51.660;7.082;2022-12-20T14:14:42;6.07;;;4.30;;
5085;SDS011;4715;51.660;7.082;2022-12-20T14:17:19;4.03;;;3.47;;
5085;SDS011;4715;51.660;7.082;2022-12-20T14:19:44;4.90;;;3.47;;
5085;SDS011;4715;51.660;7.082;2022-12-20T14:22:06;3.70;;;3.40;;
5085;SDS011;4715;51.660;7.082;2022-12-20T14:24:31;5.00;;;3.73;;
5085;SDS011;4715;51.660;7.082;2022-12-20T14:26:53;3.30;;;3.10;;
5085;SDS011;4715;51.660;7.082;2022-12-20T14:29:17;4.57;;;3.53;;
5085;SDS011;4715;51.660;7.082;2022-12-20T14:31:41;4.80;;;3.70;;
5085;SDS011;4715;51.660;7.082;2022-12-20T14:34:10;4.70;;;3.27;;
5085;SDS011;4715;51.660;7.082;2022-12-20T14:36:35;3.70;;;3.40;;
5085;SDS011;4715;51.660;7.082;2022-12-20T14:38:57;3.63;;;3.20;;
5085;SDS011;4715;51.660;7.082;2022-12-20T14:41:29;3.70;;;3.50;;
5085;SDS011;4715;51.660;7.082;2022-12-20T14:43:54;4.77;;;3.73;;
5085;SDS011;4715;51.660;7.082;2022-12-20T14:46:18;4.87;;;3.40;;
5085;SDS011;4715;51.660;7.082;2022-12-20T14:48:41;6.53;;;3.70;;
5085;SDS011;4715;51.660;7.082;2022-12-20T14:51:05;3.77;;;3.20;;
5085;SDS011;4715;51.660;7.082;2022-12-20T14:53:26;4.63;;;4.20;;
5085;SDS011;4715;51.660;7.082;2022-12-20T14:55:48;4.00;;;3.57;;
5085;SDS011;4715;51.660;7.082;2022-12-20T14:58:22;7.30;;;4.23;;
5085;SDS011;4715;51.660;7.082;2022-12-20T15:00:53;5.47;;;4.53;;
5085;SDS011;4715;51.660;7.082;2022-12-20T15:03:18;4.00;;;3.70;;
5085;SDS011;4715;51.660;7.082;2022-12-20T15:05:43;5.70;;;4.47;;
5085;SDS011;4715;51.660;7.082;2022-12-20T15:08:12;5.07;;;4.57;;
5085;SDS011;4715;51.660;7.082;2022-12-20T15:10:35;4.20;;;3.77;;
5085;SDS011;4715;51.660;7.082;2022-12-20T15:12:57;4.30;;;3.90;;
5085;SDS011;4715;51.660;7.082;2022-12-20T15:15:19;5.57;;;3.80;;
5085;SDS011;4715;51.660;7.082;2022-12-20T15:17:41;4.00;;;3.60;;
5085;SDS011;4715;51.660;7.082;2022-12-20T15:20:03;5.50;;;4.17;;
5085;SDS011;4715;51.660;7.082;2022-12-20T15:22:25;5.50;;;4.80;;
5085;SDS011;4715;51.660;7.082;2022-12-20T15:24:48;3.73;;;3.10;;
5085;SDS011;4715;51.660;7.082;2022-12-20T15:27:11;4.57;;;4.20;;
5085;SDS011;4715;51.660;7.082;2022-12-20T15:29:33;4.10;;;3.40;;
5085;SDS011;4715;51.660;7.082;2022-12-20T15:31:57;4.30;;;3.90;;
5085;SDS011;4715;51.660;7.082;2022-12-20T15:34:26;3.50;;;3.20;;